createdAt,value
2023-05-02T00:01:41.545Z,13.57
2023-05-02T00:04:10.913Z,13.49
2023-05-02T00:06:42.412Z,13.38
2023-05-02T00:09:10.722Z,13.24
2023-05-02T00:11:38.341Z,13.13
2023-05-02T00:14:06.873Z,13.02
2023-05-02T00:16:34.788Z,12.94
2023-05-02T00:19:02.747Z,12.90
2023-05-02T00:21:30.595Z,12.82
2023-05-02T00:24:00.334Z,12.77
2023-05-02T00:26:29.192Z,12.63
2023-05-02T00:28:57.484Z,12.58
2023-05-02T00:31:25.947Z,12.45
2023-05-02T00:33:54.285Z,12.40
2023-05-02T00:36:24.577Z,12.36
2023-05-02T00:38:52.678Z,12.45
2023-05-02T00:41:21.974Z,12.39
2023-05-02T00:43:50.032Z,12.20
2023-05-02T00:46:18.422Z,12.08
2023-05-02T00:48:47.525Z,11.99
2023-05-02T00:51:15.337Z,11.94
2023-05-02T00:53:43.316Z,11.84
2023-05-02T00:56:11.853Z,11.82
2023-05-02T00:58:41.946Z,11.75
2023-05-02T01:01:15.835Z,11.69
2023-05-02T01:03:47.556Z,11.64
2023-05-02T01:06:24.914Z,11.63
2023-05-02T01:08:56.845Z,11.62
2023-05-02T01:11:31.488Z,11.60
2023-05-02T01:14:04.877Z,11.62
2023-05-02T01:16:33.775Z,11.55
2023-05-02T01:19:03.120Z,11.46
2023-05-02T01:21:32.296Z,11.42
2023-05-02T01:24:04.401Z,11.34
2023-05-02T01:26:40.185Z,11.32
2023-05-02T01:29:10.088Z,11.29
2023-05-02T01:31:41.979Z,11.24
2023-05-02T01:34:13.417Z,11.32
2023-05-02T01:36:44.128Z,11.31
2023-05-02T01:39:12.765Z,11.21
2023-05-02T01:41:41.852Z,11.18
2023-05-02T01:44:13.035Z,11.25
2023-05-02T01:46:43.015Z,11.32
2023-05-02T01:49:11.931Z,11.24
2023-05-02T01:51:45.284Z,11.17
2023-05-02T01:54:14.183Z,11.10
2023-05-02T01:56:46.114Z,11.33
2023-05-02T01:59:18.634Z,11.54
2023-05-02T02:01:47.252Z,11.66
2023-05-02T02:04:17.000Z,11.76
2023-05-02T02:06:47.375Z,11.74
2023-05-02T02:09:15.504Z,11.67
2023-05-02T02:11:45.549Z,11.57
2023-05-02T02:14:18.459Z,11.56
2023-05-02T02:16:47.827Z,11.60
2023-05-02T02:19:16.369Z,11.47
2023-05-02T02:21:45.049Z,11.28
2023-05-02T02:24:13.628Z,11.16
2023-05-02T02:26:42.317Z,11.17
2023-05-02T02:29:11.339Z,11.15
2023-05-02T02:31:40.108Z,11.28
2023-05-02T02:34:09.653Z,11.40
2023-05-02T02:36:41.744Z,11.48
2023-05-02T02:39:15.024Z,11.52
2023-05-02T02:41:45.960Z,11.59
2023-05-02T02:44:22.671Z,11.60
2023-05-02T02:46:58.562Z,11.59
2023-05-02T02:49:36.692Z,11.58
2023-05-02T02:52:08.016Z,11.59
2023-05-02T02:54:40.681Z,11.56
2023-05-02T02:57:13.263Z,11.59
2023-05-02T02:59:43.462Z,11.64
2023-05-02T03:02:14.376Z,11.57
2023-05-02T03:04:44.684Z,11.52
2023-05-02T03:07:12.670Z,11.40
2023-05-02T03:09:43.889Z,11.30
2023-05-02T03:12:16.346Z,11.29
2023-05-02T03:14:45.314Z,11.29
2023-05-02T03:17:12.981Z,11.33
2023-05-02T03:19:43.377Z,11.43
2023-05-02T03:22:12.193Z,11.61
2023-05-02T03:24:41.271Z,11.75
2023-05-02T03:27:10.148Z,11.95
2023-05-02T03:29:42.218Z,12.22
2023-05-02T03:32:12.646Z,12.19
2023-05-02T03:34:44.231Z,12.19
2023-05-02T03:37:12.950Z,12.32
2023-05-02T03:39:40.961Z,12.40
2023-05-02T03:42:08.943Z,12.45
2023-05-02T03:44:36.952Z,12.48
2023-05-02T03:47:05.160Z,12.43
2023-05-02T03:49:38.427Z,12.08
2023-05-02T03:52:09.828Z,12.06
2023-05-02T03:54:39.292Z,11.99
2023-05-02T03:57:08.102Z,12.18
2023-05-02T03:59:36.781Z,12.34
2023-05-02T04:02:14.146Z,12.48
2023-05-02T04:04:46.715Z,12.52
2023-05-02T04:07:19.856Z,12.63
2023-05-02T04:09:58.754Z,12.63
2023-05-02T04:12:27.529Z,12.63
2023-05-02T04:14:55.780Z,12.51
2023-05-02T04:17:28.030Z,12.43
2023-05-02T04:19:56.062Z,12.45
2023-05-02T04:22:28.298Z,12.47
2023-05-02T04:25:00.508Z,12.38
2023-05-02T04:27:29.456Z,12.31
2023-05-02T04:29:58.498Z,12.31
2023-05-02T04:32:27.098Z,12.08
2023-05-02T04:34:56.310Z,12.08
2023-05-02T04:37:24.557Z,12.11
2023-05-02T04:39:56.316Z,12.39
2023-05-02T04:42:28.373Z,12.51
2023-05-02T04:45:19.236Z,12.67
2023-05-02T04:47:47.998Z,12.81
2023-05-02T04:50:16.719Z,12.95
2023-05-02T04:52:48.045Z,13.12
2023-05-02T04:55:17.788Z,13.18
2023-05-02T04:57:46.387Z,13.44
2023-05-02T05:00:17.164Z,13.67
2023-05-02T05:02:45.402Z,13.96
2023-05-02T05:05:15.917Z,14.26
2023-05-02T05:07:45.571Z,14.57
2023-05-02T05:10:14.251Z,14.73
2023-05-02T05:12:49.752Z,14.83
2023-05-02T05:15:18.766Z,14.60
2023-05-02T05:17:51.443Z,13.74
2023-05-02T05:20:20.127Z,13.95
2023-05-02T05:22:50.699Z,14.04
2023-05-02T05:25:21.613Z,12.58
2023-05-02T05:27:56.108Z,12.67
2023-05-02T05:30:25.175Z,12.89
2023-05-02T05:32:53.565Z,12.61
2023-05-02T05:35:22.870Z,12.35
2023-05-02T05:37:50.713Z,12.33
2023-05-02T05:40:19.249Z,12.27
2023-05-02T05:42:52.415Z,12.17
2023-05-02T05:45:27.363Z,12.13
2023-05-02T05:47:55.946Z,12.27
2023-05-02T05:50:26.177Z,12.24
2023-05-02T05:52:54.619Z,12.28
2023-05-02T05:55:23.207Z,12.39
2023-05-02T05:57:51.250Z,12.44
2023-05-02T06:00:20.464Z,12.78
2023-05-02T06:02:53.876Z,13.00
2023-05-02T06:05:28.528Z,12.80
2023-05-02T06:07:57.018Z,12.76
2023-05-02T06:10:24.883Z,12.81
2023-05-02T06:12:53.702Z,12.43
2023-05-02T06:15:26.352Z,12.47
2023-05-02T06:17:55.882Z,12.57
2023-05-02T06:20:24.015Z,12.82
2023-05-02T06:22:51.771Z,13.07
2023-05-02T06:25:19.451Z,12.95
2023-05-02T06:27:47.381Z,12.96
2023-05-02T06:30:15.263Z,13.20
2023-05-02T06:32:44.110Z,13.29
2023-05-02T06:35:13.736Z,13.55
2023-05-02T06:37:41.971Z,13.63
2023-05-02T06:40:11.348Z,13.24
2023-05-02T06:42:39.402Z,13.19
2023-05-02T06:45:09.017Z,13.40
2023-05-02T06:47:37.387Z,14.05
2023-05-02T06:50:06.202Z,13.93
2023-05-02T06:52:36.383Z,14.21
2023-05-02T06:55:04.722Z,14.04
2023-05-02T06:57:33.481Z,14.27
2023-05-02T07:00:02.136Z,14.21
2023-05-02T07:02:32.405Z,14.33
2023-05-02T07:05:00.473Z,13.98
2023-05-02T07:07:28.994Z,13.74
2023-05-02T07:09:58.950Z,13.78
2023-05-02T07:12:27.736Z,13.81
2023-05-02T07:14:55.955Z,14.45
2023-05-02T07:17:25.488Z,15.00
2023-05-02T07:19:53.733Z,15.62
2023-05-02T07:22:22.345Z,14.78
2023-05-02T07:24:50.172Z,15.48
2023-05-02T07:27:20.009Z,15.51
2023-05-02T07:29:48.056Z,15.17
2023-05-02T07:32:16.075Z,15.75
2023-05-02T07:34:44.687Z,14.93
2023-05-02T07:37:13.423Z,14.90
2023-05-02T07:39:43.644Z,15.47
2023-05-02T07:42:11.791Z,15.94
2023-05-02T07:44:41.853Z,16.35
2023-05-02T07:47:09.870Z,16.48
2023-05-02T07:49:38.199Z,15.40
2023-05-02T07:52:06.155Z,15.44
2023-05-02T07:54:34.357Z,15.27
2023-05-02T07:57:05.337Z,15.59
2023-05-02T07:59:33.537Z,14.72
2023-05-02T08:02:03.306Z,14.83
2023-05-02T08:04:31.845Z,14.79
2023-05-02T08:07:00.683Z,14.86
2023-05-02T08:09:29.071Z,14.64
2023-05-02T08:11:58.354Z,14.51
2023-05-02T08:14:26.364Z,14.56
2023-05-02T08:16:54.474Z,14.72
2023-05-02T08:19:23.873Z,14.05
2023-05-02T08:21:52.289Z,14.11
2023-05-02T08:24:20.309Z,14.30
2023-05-02T08:26:48.868Z,14.19
2023-05-02T08:29:17.112Z,14.72
2023-05-02T08:31:45.306Z,14.73
2023-05-02T08:34:14.327Z,15.27
2023-05-02T08:36:43.786Z,14.72
2023-05-02T08:39:12.246Z,14.62
2023-05-02T08:41:40.555Z,14.68
2023-05-02T08:44:09.181Z,14.48
2023-05-02T08:46:37.761Z,14.57
2023-05-02T08:49:06.681Z,14.61
2023-05-02T08:51:35.079Z,14.40
2023-05-02T08:54:04.666Z,14.18
2023-05-02T08:56:34.187Z,14.19
2023-05-02T08:59:02.178Z,14.57
2023-05-02T09:01:32.243Z,14.75
2023-05-02T09:04:00.373Z,14.63
2023-05-02T09:06:28.168Z,15.02
2023-05-02T09:08:56.365Z,15.62
2023-05-02T09:11:26.081Z,15.61
2023-05-02T09:13:54.395Z,14.94
2023-05-02T09:16:23.432Z,15.94
2023-05-02T09:18:52.812Z,16.61
2023-05-02T09:21:21.940Z,16.63
2023-05-02T09:23:50.506Z,15.88
2023-05-02T09:26:19.462Z,16.25
2023-05-02T09:28:49.557Z,15.76
2023-05-02T09:31:31.287Z,15.76
2023-05-02T09:34:09.888Z,16.13
2023-05-02T09:36:40.824Z,16.01
2023-05-02T09:39:10.572Z,15.60
2023-05-02T09:41:40.968Z,15.56
2023-05-02T09:44:12.814Z,16.05
2023-05-02T09:46:42.241Z,16.05
2023-05-02T09:49:11.831Z,15.85
2023-05-02T09:51:39.681Z,16.37
2023-05-02T09:54:07.888Z,17.58
2023-05-02T09:56:53.027Z,18.50
2023-05-02T09:59:22.598Z,16.60
2023-05-02T10:01:56.838Z,18.05
2023-05-02T10:04:25.622Z,18.50
2023-05-02T10:06:54.048Z,17.07
2023-05-02T10:09:23.471Z,16.93
2023-05-02T10:11:53.349Z,16.56
2023-05-02T10:14:23.410Z,18.19
2023-05-02T10:16:57.965Z,17.70
2023-05-02T10:19:29.023Z,18.13
2023-05-02T10:21:57.526Z,19.60
2023-05-02T10:24:40.908Z,19.08
2023-05-02T10:27:09.712Z,20.25
2023-05-02T10:29:41.187Z,22.81
2023-05-02T10:32:09.895Z,27.43
2023-05-02T10:34:40.976Z,26.37
2023-05-02T10:37:09.416Z,19.96
2023-05-02T10:39:38.060Z,18.13
2023-05-02T10:42:07.142Z,17.15
2023-05-02T10:44:35.259Z,17.02
2023-05-02T10:47:19.117Z,17.53
2023-05-02T10:49:54.405Z,16.23
2023-05-02T10:52:29.776Z,17.40
2023-05-02T10:55:17.392Z,17.02
2023-05-02T10:58:13.540Z,17.39
2023-05-02T11:00:41.827Z,18.16
2023-05-02T11:03:11.598Z,20.11
2023-05-02T11:05:55.129Z,23.09
2023-05-02T11:08:33.043Z,24.30
2023-05-02T11:11:16.246Z,25.06
2023-05-02T11:13:50.741Z,21.28
2023-05-02T11:16:19.030Z,23.16
2023-05-02T11:19:01.435Z,18.95
2023-05-02T11:21:30.277Z,17.48
2023-05-02T11:24:16.937Z,17.59
2023-05-02T11:26:45.768Z,19.57
2023-05-02T11:29:34.980Z,23.01
2023-05-02T11:32:02.926Z,26.14
2023-05-02T11:34:41.479Z,30.24
2023-05-02T11:37:14.462Z,25.73
2023-05-02T11:39:42.849Z,25.69
2023-05-02T11:42:11.563Z,29.41
2023-05-02T11:44:54.333Z,29.33
2023-05-02T11:47:22.737Z,32.14
2023-05-02T11:49:53.331Z,34.86
2023-05-02T11:52:22.349Z,30.66
2023-05-02T11:54:50.796Z,28.15
2023-05-02T11:57:19.121Z,29.48
2023-05-02T11:59:53.695Z,34.42
2023-05-02T12:02:23.378Z,38.73
2023-05-02T12:04:52.927Z,35.06
2023-05-02T12:07:21.094Z,37.63
2023-05-02T12:09:52.551Z,37.98
2023-05-02T12:12:23.555Z,31.39
2023-05-02T12:14:52.197Z,33.05
2023-05-02T12:17:21.703Z,27.68
2023-05-02T12:19:50.881Z,23.95
2023-05-02T12:22:20.554Z,22.67
2023-05-02T12:24:49.660Z,20.70
2023-05-02T12:27:18.370Z,21.04
2023-05-02T12:29:48.437Z,19.80
2023-05-02T12:32:17.475Z,18.83
2023-05-02T12:34:46.116Z,17.86
2023-05-02T12:37:14.363Z,18.19
2023-05-02T12:39:45.761Z,19.24
2023-05-02T12:42:15.299Z,19.83
2023-05-02T12:44:44.725Z,20.01
2023-05-02T12:47:14.451Z,21.93
2023-05-02T12:49:52.122Z,22.34
2023-05-02T12:52:20.354Z,20.46
2023-05-02T12:54:50.187Z,17.87
2023-05-02T12:57:25.338Z,17.44
2023-05-02T12:59:54.071Z,17.73
2023-05-02T13:02:23.056Z,17.54
2023-05-02T13:04:51.270Z,18.19
2023-05-02T13:07:18.939Z,18.24
2023-05-02T13:09:47.668Z,17.66
2023-05-02T13:12:16.818Z,17.76
2023-05-02T13:14:45.508Z,18.35
2023-05-02T13:17:14.238Z,19.46
2023-05-02T13:19:50.445Z,20.88
2023-05-02T13:22:22.053Z,22.34
2023-05-02T13:24:50.429Z,22.61
2023-05-02T13:27:19.927Z,26.04
2023-05-02T13:29:48.097Z,22.34
2023-05-02T13:32:16.591Z,22.30
2023-05-02T13:34:47.077Z,19.20
2023-05-02T13:37:15.341Z,19.55
2023-05-02T13:39:43.129Z,20.26
2023-05-02T13:42:11.403Z,24.29
2023-05-02T13:44:40.720Z,23.02
2023-05-02T13:47:09.611Z,20.86
2023-05-02T13:49:38.072Z,21.13
2023-05-02T13:52:07.939Z,21.80
2023-05-02T13:54:37.016Z,20.08
2023-05-02T13:57:07.004Z,18.55
2023-05-02T13:59:35.593Z,18.32
2023-05-02T14:02:05.324Z,17.67
2023-05-02T14:04:33.563Z,17.19
2023-05-02T14:07:02.466Z,17.02
2023-05-02T14:09:31.570Z,16.65
2023-05-02T14:12:00.657Z,17.19
2023-05-02T14:14:28.993Z,17.16
2023-05-02T14:16:57.411Z,17.02
2023-05-02T14:19:27.191Z,17.68
2023-05-02T14:21:55.849Z,17.34
2023-05-02T14:24:24.365Z,17.38
2023-05-02T14:26:53.278Z,17.55
2023-05-02T14:29:21.944Z,18.10
2023-05-02T14:31:52.205Z,17.55
2023-05-02T14:34:21.915Z,17.71
2023-05-02T14:36:51.871Z,17.87
2023-05-02T14:39:20.077Z,17.64
2023-05-02T14:41:48.469Z,17.89
2023-05-02T14:44:16.578Z,17.97
2023-05-02T14:46:44.560Z,18.22
2023-05-02T14:49:12.636Z,17.58
2023-05-02T14:51:40.295Z,17.20
2023-05-02T14:54:10.250Z,17.66
2023-05-02T14:56:38.529Z,18.17
2023-05-02T14:59:06.559Z,18.11
2023-05-02T15:01:34.794Z,17.67
2023-05-02T15:04:07.437Z,17.39
2023-05-02T15:06:37.200Z,17.17
2023-05-02T15:09:07.902Z,17.04
2023-05-02T15:11:37.765Z,17.03
2023-05-02T15:14:05.891Z,17.44
2023-05-02T15:16:34.631Z,17.35
2023-05-02T15:19:02.429Z,17.52
2023-05-02T15:21:31.266Z,17.28
2023-05-02T15:23:59.106Z,17.38
2023-05-02T15:26:27.500Z,17.35
2023-05-02T15:28:57.023Z,17.66
2023-05-02T15:31:25.754Z,17.77
2023-05-02T15:33:55.216Z,17.81
2023-05-02T15:36:30.291Z,18.25
2023-05-02T15:38:58.667Z,18.71
2023-05-02T15:41:27.334Z,19.93
2023-05-02T15:43:57.921Z,20.76
2023-05-02T15:46:26.492Z,21.08
2023-05-02T15:48:54.876Z,20.35
2023-05-02T15:51:23.071Z,19.13
2023-05-02T15:53:52.759Z,19.19
2023-05-02T15:56:21.515Z,19.78
2023-05-02T15:58:49.781Z,20.01
2023-05-02T16:01:21.198Z,20.78
2023-05-02T16:03:49.212Z,20.32
2023-05-02T16:06:20.077Z,19.45
2023-05-02T16:08:48.129Z,19.32
2023-05-02T16:11:16.707Z,18.51
2023-05-02T16:13:45.057Z,19.14
2023-05-02T16:16:15.246Z,19.57
2023-05-02T16:18:46.280Z,20.00
2023-05-02T16:21:14.644Z,20.09
2023-05-02T16:23:43.513Z,19.09
2023-05-02T16:26:12.328Z,19.51
2023-05-02T16:28:40.356Z,19.39
2023-05-02T16:31:11.557Z,19.87
2023-05-02T16:33:39.869Z,19.17
2023-05-02T16:36:10.455Z,18.74
2023-05-02T16:38:38.955Z,18.33
2023-05-02T16:41:07.602Z,17.92
2023-05-02T16:43:38.245Z,18.52
2023-05-02T16:46:07.255Z,19.01
2023-05-02T16:48:36.033Z,18.68
2023-05-02T16:51:04.663Z,18.49
2023-05-02T16:53:47.818Z,18.32
2023-05-02T16:56:18.278Z,18.37
2023-05-02T16:58:46.770Z,17.72
2023-05-02T17:01:14.772Z,17.80
2023-05-02T17:03:43.033Z,17.78
2023-05-02T17:06:19.954Z,18.08
2023-05-02T17:08:47.742Z,18.50
2023-05-02T17:11:18.674Z,17.81
2023-05-02T17:13:47.446Z,18.19
2023-05-02T17:16:15.927Z,18.06
2023-05-02T17:18:44.035Z,18.21
2023-05-02T17:21:12.422Z,18.38
2023-05-02T17:23:41.357Z,17.86
2023-05-02T17:26:14.490Z,17.80
2023-05-02T17:28:45.276Z,18.07
2023-05-02T17:31:14.750Z,17.14
2023-05-02T17:33:43.289Z,17.08
2023-05-02T17:36:11.221Z,17.34
2023-05-02T17:38:39.128Z,16.78
2023-05-02T17:41:07.042Z,17.04
2023-05-02T17:43:34.953Z,17.28
2023-05-02T17:46:14.446Z,17.39
2023-05-02T17:48:46.633Z,17.04
2023-05-02T17:51:15.917Z,16.80
2023-05-02T17:53:43.982Z,16.08
2023-05-02T17:56:13.734Z,16.02
2023-05-02T17:58:43.710Z,16.46
2023-05-02T18:01:14.574Z,15.91
2023-05-02T18:03:42.860Z,15.73
2023-05-02T18:06:16.527Z,15.38
2023-05-02T18:08:44.955Z,15.20
2023-05-02T18:11:17.855Z,15.34
2023-05-02T18:13:47.007Z,15.20
2023-05-02T18:16:16.393Z,15.05
2023-05-02T18:18:44.201Z,14.96
2023-05-02T18:21:15.415Z,14.75
2023-05-02T18:23:47.890Z,14.60
2023-05-02T18:26:16.284Z,14.40
2023-05-02T18:28:45.161Z,14.20
2023-05-02T18:31:18.502Z,13.96
2023-05-02T18:34:05.254Z,13.76
2023-05-02T18:36:33.248Z,13.61
2023-05-02T18:39:01.359Z,13.49
2023-05-02T18:41:33.300Z,13.43
2023-05-02T18:44:01.631Z,13.30
2023-05-02T18:46:30.828Z,13.21
2023-05-02T18:48:59.072Z,13.15
2023-05-02T18:51:29.130Z,13.11
2023-05-02T18:53:59.637Z,13.13
2023-05-02T18:56:28.406Z,13.02
2023-05-02T18:58:58.842Z,12.98
2023-05-02T19:01:27.302Z,12.89
2023-05-02T19:03:57.645Z,12.71
2023-05-02T19:06:28.570Z,12.68
2023-05-02T19:08:56.716Z,12.56
2023-05-02T19:11:28.008Z,12.47
2023-05-02T19:14:00.774Z,12.37
2023-05-02T19:16:41.634Z,12.31
2023-05-02T19:19:14.040Z,12.17
2023-05-02T19:21:42.727Z,12.15
2023-05-02T19:24:11.780Z,12.04
2023-05-02T19:26:40.236Z,11.92
2023-05-02T19:29:09.544Z,11.92
2023-05-02T19:31:39.108Z,11.86
2023-05-02T19:34:07.584Z,11.83
2023-05-02T19:36:38.098Z,11.80
2023-05-02T19:39:06.849Z,11.67
2023-05-02T19:41:35.703Z,11.67
2023-05-02T19:44:03.861Z,11.68
2023-05-02T19:46:32.865Z,11.69
2023-05-02T19:49:01.408Z,11.57
2023-05-02T19:51:31.023Z,11.51
2023-05-02T19:54:00.794Z,11.38
2023-05-02T19:56:31.735Z,11.27
2023-05-02T19:59:02.576Z,11.27
2023-05-02T20:01:32.525Z,11.22
2023-05-02T20:04:01.404Z,11.20
2023-05-02T20:06:31.637Z,11.00
2023-05-02T20:09:05.265Z,10.93
2023-05-02T20:11:34.140Z,10.88
2023-05-02T20:14:04.429Z,10.90
2023-05-02T20:16:33.751Z,10.77
2023-05-02T20:19:06.436Z,10.71
2023-05-02T20:21:34.865Z,10.71
2023-05-02T20:24:05.476Z,10.72
2023-05-02T20:26:34.319Z,10.58
2023-05-02T20:29:03.703Z,10.56
2023-05-02T20:31:32.090Z,10.51
2023-05-02T20:34:00.553Z,10.49
2023-05-02T20:36:31.181Z,10.37
2023-05-02T20:38:59.391Z,10.23
2023-05-02T20:41:29.376Z,10.19
2023-05-02T20:43:58.139Z,10.13
2023-05-02T20:46:26.289Z,10.08
2023-05-02T20:48:54.425Z,9.99
2023-05-02T20:51:22.962Z,9.97
2023-05-02T20:53:50.711Z,9.91
2023-05-02T20:56:19.152Z,9.96
2023-05-02T20:58:49.596Z,10.03
2023-05-02T21:01:19.396Z,9.92
2023-05-02T21:03:47.513Z,9.87
2023-05-02T21:06:16.296Z,9.83
2023-05-02T21:08:44.904Z,9.73
2023-05-02T21:11:14.608Z,9.68
2023-05-02T21:13:46.130Z,9.64
2023-05-02T21:16:16.846Z,9.59
2023-05-02T21:18:45.319Z,9.47
2023-05-02T21:21:14.462Z,9.45
2023-05-02T21:23:46.555Z,9.51
2023-05-02T21:26:16.141Z,9.40
2023-05-02T21:28:44.331Z,9.39
2023-05-02T21:31:13.906Z,9.36
2023-05-02T21:33:43.416Z,9.27
2023-05-02T21:36:12.024Z,9.27
2023-05-02T21:38:41.470Z,9.20
2023-05-02T21:41:10.910Z,9.05
2023-05-02T21:43:42.834Z,9.10
2023-05-02T21:46:12.881Z,9.14
2023-05-02T21:48:44.728Z,9.04
2023-05-02T21:51:14.410Z,8.94
2023-05-02T21:53:43.464Z,8.84
2023-05-02T21:56:14.731Z,8.66
2023-05-02T21:58:43.045Z,8.71
2023-05-02T22:01:11.634Z,8.64
2023-05-02T22:03:40.373Z,8.67
2023-05-02T22:06:10.988Z,8.64
2023-05-02T22:08:39.651Z,8.53
2023-05-02T22:11:09.545Z,8.53
2023-05-02T22:13:38.966Z,8.49
2023-05-02T22:16:08.171Z,8.41
2023-05-02T22:18:36.440Z,8.44
2023-05-02T22:21:05.270Z,8.52
2023-05-02T22:23:35.308Z,8.51
2023-05-02T22:26:04.156Z,8.47
2023-05-02T22:28:34.547Z,8.35
2023-05-02T22:31:03.341Z,8.36
2023-05-02T22:33:31.831Z,8.34
2023-05-02T22:36:00.149Z,8.36
2023-05-02T22:38:28.322Z,8.32
2023-05-02T22:40:58.160Z,8.26
2023-05-02T22:43:26.204Z,8.19
2023-05-02T22:45:54.285Z,8.15
2023-05-02T22:48:22.583Z,8.17
2023-05-02T22:50:50.784Z,8.06
2023-05-02T22:53:21.559Z,7.97
2023-05-02T22:55:49.832Z,8.05
2023-05-02T22:58:19.463Z,8.05
2023-05-02T23:00:47.835Z,8.03
2023-05-02T23:03:16.019Z,7.98
2023-05-02T23:05:44.355Z,7.95
2023-05-02T23:08:12.479Z,7.86
2023-05-02T23:10:40.940Z,7.80
2023-05-02T23:13:09.786Z,7.79
2023-05-02T23:15:40.485Z,7.73
2023-05-02T23:18:11.021Z,7.69
2023-05-02T23:20:40.597Z,7.57
2023-05-02T23:23:08.556Z,7.47
2023-05-02T23:25:37.778Z,7.45
2023-05-02T23:28:06.606Z,7.44
2023-05-02T23:30:36.370Z,7.42
2023-05-02T23:33:06.350Z,7.42
2023-05-02T23:35:35.751Z,7.34
2023-05-02T23:38:07.066Z,7.19
2023-05-02T23:40:35.623Z,7.11
2023-05-02T23:43:03.987Z,7.15
2023-05-02T23:45:32.734Z,7.00
2023-05-02T23:48:01.101Z,6.85
2023-05-02T23:50:31.481Z,6.82
2023-05-02T23:52:59.654Z,6.86
2023-05-02T23:55:27.928Z,6.82
2023-05-02T23:57:56.058Z,6.72
